createdAt,value
2023-05-02T00:01:50.654Z,10.00
2023-05-02T00:06:55.720Z,9.90
2023-05-02T00:11:59.680Z,9.70
2023-05-02T00:17:03.533Z,9.60
2023-05-02T00:22:08.456Z,9.50
2023-05-02T00:27:11.807Z,9.40
2023-05-02T00:32:15.344Z,9.30
2023-05-02T00:37:20.276Z,9.30
2023-05-02T00:42:23.652Z,9.20
2023-05-02T00:47:27.201Z,9.00
2023-05-02T00:52:32.876Z,8.90
2023-05-02T00:57:36.414Z,8.90
2023-05-02T01:02:51.147Z,8.90
2023-05-02T01:08:10.768Z,9.00
2023-05-02T01:13:21.047Z,9.20
2023-05-02T01:18:28.057Z,9.40
2023-05-02T01:23:41.122Z,9.60
2023-05-02T01:28:55.530Z,9.70
2023-05-02T01:34:00.432Z,9.60
2023-05-02T01:39:07.250Z,9.60
2023-05-02T01:44:14.025Z,9.30
2023-05-02T01:49:19.370Z,9.10
2023-05-02T01:54:23.635Z,8.90
2023-05-02T01:59:30.075Z,8.80
2023-05-02T02:04:37.491Z,8.80
2023-05-02T02:09:41.620Z,8.50
2023-05-02T02:14:56.166Z,8.50
2023-05-02T02:20:03.327Z,8.40
2023-05-02T02:25:10.263Z,8.30
2023-05-02T02:30:16.544Z,8.30
2023-05-02T02:35:22.879Z,8.20
2023-05-02T02:40:30.335Z,8.30
2023-05-02T02:45:45.013Z,8.60
2023-05-02T02:51:09.376Z,8.30
2023-05-02T02:56:16.406Z,8.60
2023-05-02T03:01:24.321Z,8.60
2023-05-02T03:06:27.815Z,8.80
2023-05-02T03:11:33.526Z,8.90
2023-05-02T03:16:39.541Z,8.70
2023-05-02T03:21:47.262Z,8.80
2023-05-02T03:26:56.027Z,8.60
2023-05-02T03:32:05.536Z,8.70
2023-05-02T03:37:09.364Z,8.50
2023-05-02T03:42:12.727Z,8.40
2023-05-02T03:47:17.487Z,8.30
2023-05-02T03:52:21.307Z,8.20
2023-05-02T03:57:30.420Z,8.10
2023-05-02T04:02:36.480Z,8.30
2023-05-02T04:07:40.441Z,8.40
2023-05-02T04:12:44.656Z,8.50
2023-05-02T04:17:50.394Z,8.80
2023-05-02T04:22:53.980Z,8.80
2023-05-02T04:27:57.309Z,9.00
2023-05-02T04:33:03.455Z,9.30
2023-05-02T04:38:11.683Z,9.50
2023-05-02T04:43:15.513Z,9.90
2023-05-02T04:48:27.927Z,10.20
2023-05-02T04:53:31.299Z,10.70
2023-05-02T04:58:37.657Z,11.10
2023-05-02T05:03:45.986Z,11.40
2023-05-02T05:08:51.153Z,11.60
2023-05-02T05:13:54.517Z,11.80
2023-05-02T05:19:00.630Z,12.20
2023-05-02T05:24:04.511Z,13.30
2023-05-02T05:29:08.244Z,13.90
2023-05-02T05:34:18.246Z,15.00
2023-05-02T05:39:25.249Z,15.70
2023-05-02T05:44:31.530Z,16.90
2023-05-02T05:49:38.757Z,16.80
2023-05-02T05:54:44.870Z,18.20
2023-05-02T05:59:48.418Z,19.00
2023-05-02T06:04:54.350Z,20.40
2023-05-02T06:10:10.987Z,20.00
2023-05-02T06:15:19.472Z,19.30
2023-05-02T06:20:26.241Z,17.70
2023-05-02T06:25:30.090Z,17.20
2023-05-02T06:30:33.955Z,17.40
2023-05-02T06:35:40.128Z,18.30
2023-05-02T06:40:45.336Z,18.30
2023-05-02T06:45:52.457Z,19.40
2023-05-02T06:50:58.201Z,18.80
2023-05-02T06:56:02.106Z,19.00
2023-05-02T07:01:06.388Z,20.30
2023-05-02T07:06:12.887Z,20.80
2023-05-02T07:11:17.491Z,21.10
2023-05-02T07:16:21.763Z,21.80
2023-05-02T07:21:27.705Z,21.00
2023-05-02T07:26:33.124Z,20.90
2023-05-02T07:31:37.028Z,21.10
2023-05-02T07:36:41.997Z,19.50
2023-05-02T07:41:45.590Z,20.00
2023-05-02T07:46:49.316Z,17.90
2023-05-02T07:51:54.828Z,17.80
2023-05-02T07:57:02.378Z,17.60
2023-05-02T08:02:06.406Z,17.30
2023-05-02T08:07:11.292Z,17.10
2023-05-02T08:12:15.006Z,16.90
2023-05-02T08:17:18.533Z,16.20
2023-05-02T08:22:24.613Z,15.70
2023-05-02T08:27:28.222Z,15.50
2023-05-02T08:32:32.604Z,15.10
2023-05-02T08:37:38.138Z,14.90
2023-05-02T08:42:44.800Z,14.90
2023-05-02T08:47:50.773Z,15.10
2023-05-02T08:52:57.187Z,15.80
2023-05-02T08:58:04.544Z,15.70
2023-05-02T09:03:23.349Z,15.10
2023-05-02T09:08:28.867Z,14.50
2023-05-02T09:13:34.791Z,14.60
2023-05-02T09:18:40.672Z,14.70
2023-05-02T09:23:47.110Z,14.80
2023-05-02T09:28:52.017Z,15.00
2023-05-02T09:33:57.032Z,15.30
2023-05-02T09:39:11.297Z,15.80
2023-05-02T09:44:18.353Z,16.00
2023-05-02T09:49:41.056Z,15.00
2023-05-02T09:54:50.516Z,14.40
2023-05-02T09:59:55.292Z,14.20
2023-05-02T10:05:01.722Z,14.90
2023-05-02T10:10:11.657Z,15.20
2023-05-02T10:15:18.420Z,14.80
2023-05-02T10:20:27.016Z,14.80
2023-05-02T10:25:34.033Z,14.50
2023-05-02T10:30:39.494Z,13.90
2023-05-02T10:35:48.069Z,13.10
2023-05-02T10:40:57.927Z,12.60
2023-05-02T10:46:05.385Z,12.50
2023-05-02T10:51:27.818Z,12.50
2023-05-02T10:56:33.796Z,12.30
2023-05-02T11:01:40.096Z,12.60
2023-05-02T11:07:19.105Z,12.80
2023-05-02T11:12:52.437Z,13.50
2023-05-02T11:18:01.346Z,13.80
2023-05-02T11:23:22.239Z,14.00
2023-05-02T11:28:48.482Z,14.20
2023-05-02T11:33:57.101Z,14.80
2023-05-02T11:39:02.096Z,15.00
2023-05-02T11:44:07.532Z,15.10
2023-05-02T11:49:14.855Z,15.20
2023-05-02T11:54:20.179Z,15.20
2023-05-02T11:59:25.315Z,15.00
2023-05-02T12:04:29.432Z,15.00
2023-05-02T12:09:33.816Z,15.20
2023-05-02T12:14:41.316Z,15.20
2023-05-02T12:19:46.671Z,14.30
2023-05-02T12:24:51.335Z,14.30
2023-05-02T12:29:57.499Z,14.90
2023-05-02T12:35:03.298Z,15.30
2023-05-02T12:40:15.927Z,15.40
2023-05-02T12:45:23.280Z,15.10
2023-05-02T12:50:36.854Z,15.80
2023-05-02T12:55:41.669Z,16.90
2023-05-02T13:00:47.883Z,16.00
2023-05-02T13:05:54.263Z,16.80
2023-05-02T13:10:57.815Z,16.50
2023-05-02T13:16:02.775Z,16.50
2023-05-02T13:21:07.613Z,15.90
2023-05-02T13:26:11.627Z,16.10
2023-05-02T13:31:17.687Z,15.60
2023-05-02T13:36:21.829Z,15.70
2023-05-02T13:41:26.101Z,15.40
2023-05-02T13:46:36.549Z,15.30
2023-05-02T13:51:41.022Z,15.60
2023-05-02T13:56:45.485Z,14.50
2023-05-02T14:01:50.977Z,14.20
2023-05-02T14:06:55.964Z,14.00
2023-05-02T14:11:59.904Z,13.60
2023-05-02T14:17:05.591Z,13.80
2023-05-02T14:22:09.334Z,13.60
2023-05-02T14:27:18.196Z,13.40
2023-05-02T14:32:24.092Z,13.10
2023-05-02T14:37:28.616Z,13.20
2023-05-02T14:42:32.519Z,13.10
2023-05-02T14:47:38.944Z,12.90
2023-05-02T14:52:42.807Z,12.80
2023-05-02T14:57:47.316Z,13.00
2023-05-02T15:02:53.305Z,12.90
2023-05-02T15:07:57.291Z,13.60
2023-05-02T15:13:01.752Z,13.50
2023-05-02T15:18:07.780Z,13.40
2023-05-02T15:23:11.988Z,13.30
2023-05-02T15:28:15.578Z,13.20
2023-05-02T15:33:20.972Z,13.00
2023-05-02T15:38:25.076Z,12.70
2023-05-02T15:43:28.693Z,12.60
2023-05-02T15:48:34.860Z,12.40
2023-05-02T15:53:42.353Z,12.40
2023-05-02T15:58:46.309Z,13.50
2023-05-02T16:03:51.910Z,14.20
2023-05-02T16:08:56.019Z,13.90
2023-05-02T16:14:00.367Z,14.90
2023-05-02T16:19:12.508Z,15.10
2023-05-02T16:24:16.384Z,15.50
2023-05-02T16:29:20.211Z,15.80
2023-05-02T16:34:26.355Z,15.40
2023-05-02T16:39:30.154Z,14.40
2023-05-02T16:44:34.267Z,14.00
2023-05-02T16:49:39.446Z,13.40
2023-05-02T16:54:43.883Z,13.40
2023-05-02T16:59:50.162Z,13.00
2023-05-02T17:04:55.954Z,12.40
2023-05-02T17:09:59.806Z,12.70
2023-05-02T17:15:05.824Z,13.30
2023-05-02T17:20:12.853Z,13.20
2023-05-02T17:25:17.679Z,13.70
2023-05-02T17:30:21.611Z,13.40
2023-05-02T17:35:26.752Z,12.90
2023-05-02T17:40:30.318Z,12.80
2023-05-02T17:45:34.322Z,12.80
2023-05-02T17:50:40.253Z,12.60
2023-05-02T17:55:44.145Z,12.20
2023-05-02T18:00:47.955Z,11.90
2023-05-02T18:05:52.990Z,11.50
2023-05-02T18:10:56.988Z,11.30
2023-05-02T18:16:01.575Z,11.20
2023-05-02T18:21:06.958Z,11.20
2023-05-02T18:26:14.095Z,11.00
2023-05-02T18:31:18.146Z,11.10
2023-05-02T18:36:27.494Z,11.00
2023-05-02T18:41:31.363Z,11.00
2023-05-02T18:46:34.768Z,10.80
2023-05-02T18:51:39.796Z,10.70
2023-05-02T18:56:44.435Z,10.70
2023-05-02T19:01:48.657Z,10.80
2023-05-02T19:06:54.124Z,10.90
2023-05-02T19:11:57.937Z,10.90
2023-05-02T19:17:01.787Z,10.80
2023-05-02T19:22:07.960Z,10.80
2023-05-02T19:27:11.628Z,10.70
2023-05-02T19:32:15.982Z,10.70
2023-05-02T19:37:22.066Z,10.70
2023-05-02T19:42:26.800Z,10.70
2023-05-02T19:47:32.509Z,10.70
2023-05-02T19:52:41.377Z,10.70
2023-05-02T19:57:45.598Z,10.70
2023-05-02T20:02:51.221Z,10.60
2023-05-02T20:07:56.720Z,10.40
2023-05-02T20:13:00.737Z,10.40
2023-05-02T20:18:04.873Z,10.40
2023-05-02T20:23:10.721Z,10.30
2023-05-02T20:28:14.537Z,10.10
2023-05-02T20:33:18.850Z,10.30
2023-05-02T20:38:24.635Z,10.10
2023-05-02T20:43:29.291Z,9.90
2023-05-02T20:48:33.275Z,9.90
2023-05-02T20:53:40.030Z,9.80
2023-05-02T20:58:43.982Z,9.80
2023-05-02T21:03:49.346Z,9.90
2023-05-02T21:08:56.639Z,9.70
2023-05-02T21:14:00.862Z,9.70
2023-05-02T21:19:04.654Z,9.60
2023-05-02T21:24:09.851Z,9.60
2023-05-02T21:29:15.034Z,9.60
2023-05-02T21:34:19.242Z,9.60
2023-05-02T21:39:26.172Z,9.50
2023-05-02T21:44:30.578Z,9.40
2023-05-02T21:49:34.386Z,9.60
2023-05-02T21:54:40.492Z,9.50
2023-05-02T21:59:44.284Z,9.60
2023-05-02T22:04:48.399Z,9.70
2023-05-02T22:09:53.644Z,9.60
2023-05-02T22:14:57.054Z,9.50
2023-05-02T22:20:02.326Z,9.60
2023-05-02T22:25:09.835Z,9.40
2023-05-02T22:30:14.103Z,9.40
2023-05-02T22:35:21.470Z,9.40
2023-05-02T22:40:29.709Z,9.30
2023-05-02T22:45:34.353Z,9.40
2023-05-02T22:50:38.730Z,9.30
2023-05-02T22:55:44.091Z,9.30
2023-05-02T23:00:48.245Z,9.40
2023-05-02T23:05:52.106Z,9.20
2023-05-02T23:10:57.412Z,9.20
2023-05-02T23:16:01.395Z,9.20
2023-05-02T23:21:05.915Z,9.20
2023-05-02T23:26:13.115Z,9.20
2023-05-02T23:31:17.816Z,9.10
2023-05-02T23:36:22.091Z,9.10
2023-05-02T23:41:28.305Z,9.00
2023-05-02T23:46:32.335Z,9.10
2023-05-02T23:51:37.728Z,9.00
2023-05-02T23:56:43.073Z,8.80
